»·PEaware :: N982YR KBFI-KOLM

N982YR :: KBFI-KOLM

FLIGHT INFORMATION

Flight Status: Arrived
Operator: Privately registered:
United States
More flights under this callsign
Pilot: Anonymous 15639 (15639)
Aircraft: CESSNA 172 SKYHAWK
(C172)
More flights by this aircraft type
Origin: KBFI Boeing Field/King Co Intl
United States
Destination: KOLM Olympia
United States
More flights between these airports :: More routes between these airports
Route: +NEEDL1 SEA V27 CARRO
File this flight plan on PilotEdge
Remarks:
Altitude:
(Current/Filed)
4,000ft
Speed:
(Current/Filed)
115kts
Departed: 27-Aug-18 09:50 AM
Arrived: 27-Aug-18 10:20 AM
Distance/Time
Traveled:
41nm/0:30
Distance/Time
To Go:
Arrived

Flight Plot

Page will automatically refresh every two minutes.

Flight plan parsing failed; only flown route is shown


Map Options




Map Legend


Flown Route
Filed Route
Departure Airport
Arrival Airport
Navaid (VOR, NDB)
Fix

Horizontal Profiles

Position Reports

Time Latitude Longitude Heading Altitude Ground
Speed
27-Aug-18 09:33 47.536669 -122.304474 320 22ft 0kts
27-Aug-18 09:34 47.536669 -122.304474 320 22ft 0kts
27-Aug-18 09:35 47.536669 -122.304474 320 22ft 0kts
27-Aug-18 09:36 47.536669 -122.304474 320 22ft 0kts
27-Aug-18 09:37 47.536669 -122.304474 320 22ft 0kts
27-Aug-18 09:38 47.536669 -122.304474 320 22ft 0kts
27-Aug-18 09:39 47.536669 -122.304474 320 22ft 0kts
27-Aug-18 09:40 47.536669 -122.304474 320 22ft 0kts
27-Aug-18 09:41 47.536669 -122.304474 320 22ft 0kts
27-Aug-18 09:42 47.536669 -122.304474 320 22ft 0kts
27-Aug-18 09:43 47.536669 -122.304474 320 22ft 0kts
27-Aug-18 09:44 47.536669 -122.304474 320 22ft 0kts
27-Aug-18 09:45 47.536670 -122.304475 320 22ft 0kts
27-Aug-18 09:46 47.536669 -122.304474 320 22ft 0kts
27-Aug-18 09:47 47.536526 -122.304982 206 22ft 7kts
27-Aug-18 09:48 47.533974 -122.302845 150 22ft 13kts
27-Aug-18 09:49 47.530884 -122.300252 151 22ft 13kts
27-Aug-18 09:50 47.529434 -122.300273 327 22ft 11kts
27-Aug-18 09:51 47.542997 -122.311662 330 416ft 73kts
27-Aug-18 09:52 47.560673 -122.327546 333 1080ft 77kts
27-Aug-18 09:53 47.580373 -122.344020 331 1671ft 82kts
27-Aug-18 09:54 47.601632 -122.362397 330 2033ft 104kts
27-Aug-18 09:55 47.611237 -122.401961 266 2038ft 114kts
27-Aug-18 09:56 47.607947 -122.448886 263 2240ft 104kts
27-Aug-18 09:57 47.589202 -122.469439 186 2883ft 91kts
27-Aug-18 09:58 47.564372 -122.474059 187 3392ft 93kts
27-Aug-18 09:59 47.538849 -122.479401 185 3881ft 94kts
27-Aug-18 10:00 47.509041 -122.484830 185 3967ft 118kts
27-Aug-18 10:01 47.476520 -122.490809 185 3969ft 119kts
27-Aug-18 10:02 47.443017 -122.497019 185 3971ft 123kts
27-Aug-18 10:03 47.408496 -122.503409 185 3973ft 126kts
27-Aug-18 10:04 47.380122 -122.525351 250 3975ft 125kts
27-Aug-18 10:05 47.367170 -122.572954 251 3978ft 124kts
27-Aug-18 10:06 47.354575 -122.620157 251 3981ft 123kts
27-Aug-18 10:07 47.342059 -122.667008 250 3981ft 123kts
27-Aug-18 10:08 47.329271 -122.714085 250 3979ft 124kts
27-Aug-18 10:09 47.316605 -122.761680 250 3977ft 125kts
27-Aug-18 10:10 47.300103 -122.805570 198 3973ft 126kts
27-Aug-18 10:11 47.266231 -122.816923 189 3477ft 124kts
27-Aug-18 10:12 47.232320 -122.827159 189 2978ft 124kts
27-Aug-18 10:13 47.198813 -122.837044 189 2901ft 122kts
27-Aug-18 10:14 47.165459 -122.846914 189 2562ft 123kts
27-Aug-18 10:15 47.132385 -122.856626 189 2404ft 121kts
27-Aug-18 10:16 47.099347 -122.866344 189 2409ft 118kts
27-Aug-18 10:17 47.070175 -122.874781 188 2172ft 104kts
27-Aug-18 10:18 47.042101 -122.883206 189 1575ft 100kts
27-Aug-18 10:19 47.015688 -122.890947 189 1053ft 95kts
27-Aug-18 10:20 46.990890 -122.898173 188 558ft 83kts
27-Aug-18 10:21 46.971401 -122.903809 194 212ft 19kts
27-Aug-18 10:22 46.970069 -122.900328 79 212ft 12kts
27-Aug-18 10:23 46.972366 -122.896609 48 212ft 12kts
27-Aug-18 10:24 46.972983 -122.894646 196 212ft 0kts

Navigation Log

Ident Type
Flight plan parsing failed, navigation log unavailable